sensor_id;sensor_type;location;lat;lon;timestamp;P1;durP1;ratioP1;P2;durP2;ratioP2
32786;SDS011;19139;49.372;8.580;2024-02-15T00:02:26;12.90;;;9.80;;
32786;SDS011;19139;49.372;8.580;2024-02-15T00:04:53;16.27;;;11.20;;
32786;SDS011;19139;49.372;8.580;2024-02-15T00:07:19;15.27;;;11.27;;
32786;SDS011;19139;49.372;8.580;2024-02-15T00:09:48;13.93;;;11.07;;
32786;SDS011;19139;49.372;8.580;2024-02-15T00:12:15;16.27;;;10.77;;
32786;SDS011;19139;49.372;8.580;2024-02-15T00:14:42;12.60;;;10.97;;
32786;SDS011;19139;49.372;8.580;2024-02-15T00:17:09;13.13;;;10.90;;
32786;SDS011;19139;49.372;8.580;2024-02-15T00:19:37;11.50;;;8.87;;
32786;SDS011;19139;49.372;8.580;2024-02-15T00:22:08;12.27;;;8.67;;
32786;SDS011;19139;49.372;8.580;2024-02-15T00:24:38;10.30;;;9.17;;
32786;SDS011;19139;49.372;8.580;2024-02-15T00:27:05;11.80;;;9.67;;
32786;SDS011;19139;49.372;8.580;2024-02-15T00:29:32;10.10;;;8.47;;
32786;SDS011;19139;49.372;8.580;2024-02-15T00:32:01;10.27;;;8.70;;
32786;SDS011;19139;49.372;8.580;2024-02-15T00:34:30;10.60;;;9.50;;
32786;SDS011;19139;49.372;8.580;2024-02-15T00:36:56;9.60;;;7.83;;
32786;SDS011;19139;49.372;8.580;2024-02-15T00:39:23;13.83;;;7.60;;
32786;SDS011;19139;49.372;8.580;2024-02-15T00:41:50;8.60;;;7.30;;
32786;SDS011;19139;49.372;8.580;2024-02-15T00:44:17;11.37;;;7.17;;
32786;SDS011;19139;49.372;8.580;2024-02-15T00:46:43;8.23;;;6.53;;
32786;SDS011;19139;49.372;8.580;2024-02-15T00:49:10;12.07;;;7.27;;
32786;SDS011;19139;49.372;8.580;2024-02-15T00:51:37;9.37;;;6.73;;
32786;SDS011;19139;49.372;8.580;2024-02-15T00:54:04;8.00;;;6.77;;
32786;SDS011;19139;49.372;8.580;2024-02-15T00:56:31;11.03;;;7.03;;
32786;SDS011;19139;49.372;8.580;2024-02-15T00:58:59;10.53;;;7.80;;
32786;SDS011;19139;49.372;8.580;2024-02-15T01:01:29;10.37;;;6.93;;
32786;SDS011;19139;49.372;8.580;2024-02-15T01:03:56;7.93;;;6.93;;
32786;SDS011;19139;49.372;8.580;2024-02-15T01:06:23;8.50;;;6.83;;
32786;SDS011;19139;49.372;8.580;2024-02-15T01:08:50;8.67;;;7.60;;
32786;SDS011;19139;49.372;8.580;2024-02-15T01:11:16;9.57;;;6.97;;
32786;SDS011;19139;49.372;8.580;2024-02-15T01:13:43;10.37;;;8.07;;
32786;SDS011;19139;49.372;8.580;2024-02-15T01:16:11;9.83;;;7.60;;
32786;SDS011;19139;49.372;8.580;2024-02-15T01:18:37;9.43;;;7.53;;
32786;SDS011;19139;49.372;8.580;2024-02-15T01:21:04;9.90;;;7.97;;
32786;SDS011;19139;49.372;8.580;2024-02-15T01:23:32;10.17;;;7.00;;
32786;SDS011;19139;49.372;8.580;2024-02-15T01:26:03;8.47;;;7.43;;
32786;SDS011;19139;49.372;8.580;2024-02-15T01:28:31;10.43;;;8.20;;
32786;SDS011;19139;49.372;8.580;2024-02-15T01:30:58;8.90;;;8.00;;
32786;SDS011;19139;49.372;8.580;2024-02-15T01:33:25;10.40;;;8.07;;
32786;SDS011;19139;49.372;8.580;2024-02-15T01:35:53;9.37;;;8.20;;
32786;SDS011;19139;49.372;8.580;2024-02-15T01:38:19;10.80;;;7.83;;
32786;SDS011;19139;49.372;8.580;2024-02-15T01:40:47;10.20;;;9.13;;
32786;SDS011;19139;49.372;8.580;2024-02-15T01:43:14;12.63;;;8.60;;
32786;SDS011;19139;49.372;8.580;2024-02-15T01:45:41;11.87;;;10.03;;
32786;SDS011;19139;49.372;8.580;2024-02-15T01:48:08;11.13;;;10.03;;
32786;SDS011;19139;49.372;8.580;2024-02-15T01:50:37;11.87;;;9.73;;
32786;SDS011;19139;49.372;8.580;2024-02-15T01:53:04;12.57;;;10.27;;
32786;SDS011;19139;49.372;8.580;2024-02-15T01:55:33;12.03;;;9.50;;
32786;SDS011;19139;49.372;8.580;2024-02-15T01:58:00;13.60;;;9.10;;
32786;SDS011;19139;49.372;8.580;2024-02-15T02:00:28;12.80;;;10.17;;
32786;SDS011;19139;49.372;8.580;2024-02-15T02:02:56;10.43;;;9.07;;
32786;SDS011;19139;49.372;8.580;2024-02-15T02:05:27;12.90;;;11.60;;
32786;SDS011;19139;49.372;8.580;2024-02-15T02:07:55;13.70;;;10.53;;
32786;SDS011;19139;49.372;8.580;2024-02-15T02:10:25;11.23;;;9.87;;
32786;SDS011;19139;49.372;8.580;2024-02-15T02:12:53;10.77;;;9.67;;
32786;SDS011;19139;49.372;8.580;2024-02-15T02:15:20;10.80;;;9.70;;
32786;SDS011;19139;49.372;8.580;2024-02-15T02:17:50;12.17;;;9.80;;
32786;SDS011;19139;49.372;8.580;2024-02-15T02:20:20;14.10;;;10.60;;
32786;SDS011;19139;49.372;8.580;2024-02-15T02:22:48;13.37;;;10.47;;
32786;SDS011;19139;49.372;8.580;2024-02-15T02:25:21;12.80;;;8.83;;
32786;SDS011;19139;49.372;8.580;2024-02-15T02:27:52;12.37;;;9.00;;
32786;SDS011;19139;49.372;8.580;2024-02-15T02:30:19;11.97;;;9.50;;
32786;SDS011;19139;49.372;8.580;2024-02-15T02:32:48;11.70;;;8.30;;
32786;SDS011;19139;49.372;8.580;2024-02-15T02:35:15;9.43;;;7.93;;
32786;SDS011;19139;49.372;8.580;2024-02-15T02:37:46;8.10;;;7.30;;
32786;SDS011;19139;49.372;8.580;2024-02-15T02:40:13;9.90;;;8.03;;
32786;SDS011;19139;49.372;8.580;2024-02-15T02:42:52;8.90;;;7.90;;
32786;SDS011;19139;49.372;8.580;2024-02-15T02:45:25;12.27;;;7.10;;
32786;SDS011;19139;49.372;8.580;2024-02-15T02:47:52;7.77;;;5.73;;
32786;SDS011;19139;49.372;8.580;2024-02-15T02:50:20;9.57;;;6.70;;
32786;SDS011;19139;49.372;8.580;2024-02-15T02:52:49;9.23;;;6.70;;
32786;SDS011;19139;49.372;8.580;2024-02-15T02:55:16;11.23;;;7.40;;
32786;SDS011;19139;49.372;8.580;2024-02-15T02:57:43;9.30;;;6.93;;
32786;SDS011;19139;49.372;8.580;2024-02-15T03:00:11;11.17;;;7.10;;
32786;SDS011;19139;49.372;8.580;2024-02-15T03:02:41;8.80;;;6.57;;
32786;SDS011;19139;49.372;8.580;2024-02-15T03:05:09;8.60;;;7.03;;
32786;SDS011;19139;49.372;8.580;2024-02-15T03:07:38;9.23;;;6.63;;
32786;SDS011;19139;49.372;8.580;2024-02-15T03:10:08;8.97;;;5.77;;
32786;SDS011;19139;49.372;8.580;2024-02-15T03:12:40;8.87;;;6.33;;
32786;SDS011;19139;49.372;8.580;2024-02-15T03:15:13;10.57;;;6.27;;
32786;SDS011;19139;49.372;8.580;2024-02-15T03:17:40;9.53;;;6.87;;
32786;SDS011;19139;49.372;8.580;2024-02-15T03:20:08;8.93;;;6.47;;
32786;SDS011;19139;49.372;8.580;2024-02-15T03:22:53;7.70;;;6.20;;
32786;SDS011;19139;49.372;8.580;2024-02-15T03:25:21;9.67;;;6.63;;
32786;SDS011;19139;49.372;8.580;2024-02-15T03:27:58;8.80;;;7.27;;
32786;SDS011;19139;49.372;8.580;2024-02-15T03:30:30;10.53;;;7.33;;
32786;SDS011;19139;49.372;8.580;2024-02-15T03:33:00;8.77;;;6.43;;
32786;SDS011;19139;49.372;8.580;2024-02-15T03:35:32;9.60;;;6.70;;
32786;SDS011;19139;49.372;8.580;2024-02-15T03:37:58;11.87;;;6.70;;
32786;SDS011;19139;49.372;8.580;2024-02-15T03:40:25;5.97;;;5.40;;
32786;SDS011;19139;49.372;8.580;2024-02-15T03:42:53;8.17;;;6.77;;
32786;SDS011;19139;49.372;8.580;2024-02-15T03:45:20;8.67;;;6.47;;
32786;SDS011;19139;49.372;8.580;2024-02-15T03:47:47;8.83;;;6.93;;
32786;SDS011;19139;49.372;8.580;2024-02-15T03:50:16;9.13;;;6.00;;
32786;SDS011;19139;49.372;8.580;2024-02-15T03:52:45;7.60;;;6.50;;
32786;SDS011;19139;49.372;8.580;2024-02-15T03:55:12;8.47;;;6.33;;
32786;SDS011;19139;49.372;8.580;2024-02-15T03:57:39;9.33;;;7.00;;
32786;SDS011;19139;49.372;8.580;2024-02-15T04:00:07;8.30;;;6.23;;
32786;SDS011;19139;49.372;8.580;2024-02-15T04:02:37;9.70;;;5.83;;
32786;SDS011;19139;49.372;8.580;2024-02-15T04:05:07;9.80;;;5.47;;
32786;SDS011;19139;49.372;8.580;2024-02-15T04:07:38;9.97;;;5.97;;
32786;SDS011;19139;49.372;8.580;2024-02-15T04:10:05;7.20;;;6.10;;
32786;SDS011;19139;49.372;8.580;2024-02-15T04:12:32;10.43;;;6.57;;
32786;SDS011;19139;49.372;8.580;2024-02-15T04:14:59;9.63;;;6.10;;
32786;SDS011;19139;49.372;8.580;2024-02-15T04:17:38;8.53;;;6.27;;
32786;SDS011;19139;49.372;8.580;2024-02-15T04:20:07;8.33;;;6.17;;
32786;SDS011;19139;49.372;8.580;2024-02-15T04:22:35;8.23;;;5.47;;
32786;SDS011;19139;49.372;8.580;2024-02-15T04:25:05;7.00;;;4.93;;
32786;SDS011;19139;49.372;8.580;2024-02-15T04:27:32;9.97;;;5.63;;
32786;SDS011;19139;49.372;8.580;2024-02-15T04:30:00;7.23;;;5.17;;
32786;SDS011;19139;49.372;8.580;2024-02-15T04:32:29;9.67;;;5.40;;
32786;SDS011;19139;49.372;8.580;2024-02-15T04:35:00;6.57;;;5.37;;
32786;SDS011;19139;49.372;8.580;2024-02-15T04:37:28;7.30;;;5.80;;
32786;SDS011;19139;49.372;8.580;2024-02-15T04:39:55;7.63;;;5.30;;
32786;SDS011;19139;49.372;8.580;2024-02-15T04:42:22;7.97;;;5.23;;
32786;SDS011;19139;49.372;8.580;2024-02-15T04:44:52;8.27;;;5.40;;
32786;SDS011;19139;49.372;8.580;2024-02-15T04:47:20;7.80;;;5.20;;
32786;SDS011;19139;49.372;8.580;2024-02-15T04:49:47;12.10;;;5.67;;
32786;SDS011;19139;49.372;8.580;2024-02-15T04:52:13;7.43;;;5.30;;
32786;SDS011;19139;49.372;8.580;2024-02-15T04:54:40;6.63;;;5.30;;
32786;SDS011;19139;49.372;8.580;2024-02-15T04:57:07;9.73;;;6.47;;
32786;SDS011;19139;49.372;8.580;2024-02-15T04:59:38;6.13;;;5.03;;
32786;SDS011;19139;49.372;8.580;2024-02-15T05:02:05;7.40;;;4.70;;
32786;SDS011;19139;49.372;8.580;2024-02-15T05:04:34;7.07;;;4.87;;
32786;SDS011;19139;49.372;8.580;2024-02-15T05:07:02;8.50;;;4.77;;
32786;SDS011;19139;49.372;8.580;2024-02-15T05:09:30;8.73;;;5.43;;
32786;SDS011;19139;49.372;8.580;2024-02-15T05:11:59;6.50;;;4.57;;
32786;SDS011;19139;49.372;8.580;2024-02-15T05:14:26;10.10;;;5.23;;
32786;SDS011;19139;49.372;8.580;2024-02-15T05:16:53;7.77;;;5.40;;
32786;SDS011;19139;49.372;8.580;2024-02-15T05:19:19;8.23;;;5.63;;
32786;SDS011;19139;49.372;8.580;2024-02-15T05:21:46;5.73;;;4.53;;
32786;SDS011;19139;49.372;8.580;2024-02-15T05:24:13;9.30;;;5.60;;
32786;SDS011;19139;49.372;8.580;2024-02-15T05:26:41;5.37;;;4.20;;
32786;SDS011;19139;49.372;8.580;2024-02-15T05:29:10;7.03;;;4.80;;
32786;SDS011;19139;49.372;8.580;2024-02-15T05:31:37;7.47;;;5.20;;
32786;SDS011;19139;49.372;8.580;2024-02-15T05:34:05;9.70;;;5.40;;
32786;SDS011;19139;49.372;8.580;2024-02-15T05:36:38;6.53;;;4.47;;
32786;SDS011;19139;49.372;8.580;2024-02-15T05:39:05;7.97;;;4.77;;
32786;SDS011;19139;49.372;8.580;2024-02-15T05:41:32;4.97;;;4.33;;
32786;SDS011;19139;49.372;8.580;2024-02-15T05:43:59;10.70;;;5.67;;
32786;SDS011;19139;49.372;8.580;2024-02-15T05:46:26;7.70;;;4.70;;
32786;SDS011;19139;49.372;8.580;2024-02-15T05:48:54;6.80;;;4.83;;
32786;SDS011;19139;49.372;8.580;2024-02-15T05:51:21;9.20;;;5.07;;
32786;SDS011;19139;49.372;8.580;2024-02-15T05:53:49;7.83;;;4.73;;
32786;SDS011;19139;49.372;8.580;2024-02-15T05:56:16;10.50;;;5.50;;
32786;SDS011;19139;49.372;8.580;2024-02-15T05:58:43;8.50;;;4.83;;
32786;SDS011;19139;49.372;8.580;2024-02-15T06:01:10;5.90;;;4.30;;
32786;SDS011;19139;49.372;8.580;2024-02-15T06:03:39;8.97;;;4.23;;
32786;SDS011;19139;49.372;8.580;2024-02-15T06:06:08;12.23;;;5.20;;
32786;SDS011;19139;49.372;8.580;2024-02-15T06:08:35;6.33;;;4.60;;
32786;SDS011;19139;49.372;8.580;2024-02-15T06:11:03;6.63;;;4.10;;
32786;SDS011;19139;49.372;8.580;2024-02-15T06:13:31;9.03;;;4.93;;
32786;SDS011;19139;49.372;8.580;2024-02-15T06:15:58;8.07;;;4.43;;
32786;SDS011;19139;49.372;8.580;2024-02-15T06:18:25;7.93;;;4.60;;
32786;SDS011;19139;49.372;8.580;2024-02-15T06:20:55;5.53;;;4.73;;
32786;SDS011;19139;49.372;8.580;2024-02-15T06:23:28;9.20;;;4.67;;
32786;SDS011;19139;49.372;8.580;2024-02-15T06:25:55;6.33;;;4.87;;
32786;SDS011;19139;49.372;8.580;2024-02-15T06:28:24;6.30;;;5.33;;
32786;SDS011;19139;49.372;8.580;2024-02-15T06:31:11;6.53;;;5.03;;
32786;SDS011;19139;49.372;8.580;2024-02-15T06:33:56;10.10;;;5.20;;
32786;SDS011;19139;49.372;8.580;2024-02-15T06:36:54;6.67;;;4.70;;
32786;SDS011;19139;49.372;8.580;2024-02-15T06:39:41;6.60;;;4.70;;
32786;SDS011;19139;49.372;8.580;2024-02-15T06:42:09;6.27;;;4.70;;
32786;SDS011;19139;49.372;8.580;2024-02-15T06:44:45;6.20;;;4.73;;
32786;SDS011;19139;49.372;8.580;2024-02-15T06:47:13;8.67;;;5.10;;
32786;SDS011;19139;49.372;8.580;2024-02-15T06:49:42;5.87;;;4.23;;
32786;SDS011;19139;49.372;8.580;2024-02-15T06:52:10;8.40;;;4.70;;
32786;SDS011;19139;49.372;8.580;2024-02-15T06:54:41;11.13;;;5.20;;
32786;SDS011;19139;49.372;8.580;2024-02-15T06:57:09;6.97;;;4.80;;
32786;SDS011;19139;49.372;8.580;2024-02-15T06:59:36;7.93;;;4.83;;
32786;SDS011;19139;49.372;8.580;2024-02-15T07:02:06;6.80;;;4.40;;
32786;SDS011;19139;49.372;8.580;2024-02-15T07:04:34;7.63;;;4.20;;
32786;SDS011;19139;49.372;8.580;2024-02-15T07:07:01;5.33;;;4.40;;
32786;SDS011;19139;49.372;8.580;2024-02-15T07:09:29;6.13;;;4.50;;
32786;SDS011;19139;49.372;8.580;2024-02-15T07:11:56;7.03;;;4.53;;
32786;SDS011;19139;49.372;8.580;2024-02-15T07:14:24;8.67;;;3.63;;
32786;SDS011;19139;49.372;8.580;2024-02-15T07:16:54;5.93;;;4.50;;
32786;SDS011;19139;49.372;8.580;2024-02-15T07:19:24;7.40;;;3.77;;
32786;SDS011;19139;49.372;8.580;2024-02-15T07:21:53;6.40;;;3.80;;
32786;SDS011;19139;49.372;8.580;2024-02-15T07:24:21;5.03;;;3.57;;
32786;SDS011;19139;49.372;8.580;2024-02-15T07:26:48;5.43;;;3.30;;
32786;SDS011;19139;49.372;8.580;2024-02-15T07:29:14;5.87;;;3.57;;
32786;SDS011;19139;49.372;8.580;2024-02-15T07:31:41;5.83;;;3.90;;
32786;SDS011;19139;49.372;8.580;2024-02-15T07:34:08;5.50;;;3.93;;
32786;SDS011;19139;49.372;8.580;2024-02-15T07:36:36;9.37;;;4.27;;
32786;SDS011;19139;49.372;8.580;2024-02-15T07:39:02;6.70;;;3.40;;
32786;SDS011;19139;49.372;8.580;2024-02-15T07:41:30;6.87;;;3.53;;
32786;SDS011;19139;49.372;8.580;2024-02-15T07:43:59;4.70;;;3.13;;
32786;SDS011;19139;49.372;8.580;2024-02-15T07:46:27;5.40;;;3.63;;
32786;SDS011;19139;49.372;8.580;2024-02-15T07:48:54;7.47;;;3.97;;
32786;SDS011;19139;49.372;8.580;2024-02-15T07:51:21;5.97;;;3.50;;
32786;SDS011;19139;49.372;8.580;2024-02-15T07:53:49;6.93;;;3.67;;
32786;SDS011;19139;49.372;8.580;2024-02-15T07:56:16;5.20;;;3.47;;
32786;SDS011;19139;49.372;8.580;2024-02-15T07:58:45;8.53;;;3.77;;
32786;SDS011;19139;49.372;8.580;2024-02-15T08:01:18;8.07;;;3.53;;
32786;SDS011;19139;49.372;8.580;2024-02-15T08:03:51;6.23;;;3.10;;
32786;SDS011;19139;49.372;8.580;2024-02-15T08:06:20;5.57;;;3.87;;
32786;SDS011;19139;49.372;8.580;2024-02-15T08:08:50;9.20;;;3.10;;
32786;SDS011;19139;49.372;8.580;2024-02-15T08:11:18;9.37;;;3.23;;
32786;SDS011;19139;49.372;8.580;2024-02-15T08:13:49;6.70;;;3.37;;
32786;SDS011;19139;49.372;8.580;2024-02-15T08:16:20;5.00;;;2.70;;
32786;SDS011;19139;49.372;8.580;2024-02-15T08:18:49;7.33;;;3.73;;
32786;SDS011;19139;49.372;8.580;2024-02-15T08:21:27;3.67;;;2.97;;
32786;SDS011;19139;49.372;8.580;2024-02-15T08:23:56;4.70;;;2.33;;
32786;SDS011;19139;49.372;8.580;2024-02-15T08:26:23;8.00;;;2.70;;
32786;SDS011;19139;49.372;8.580;2024-02-15T08:28:49;7.00;;;2.97;;
32786;SDS011;19139;49.372;8.580;2024-02-15T08:31:16;5.77;;;3.10;;
32786;SDS011;19139;49.372;8.580;2024-02-15T08:33:43;3.83;;;2.60;;
32786;SDS011;19139;49.372;8.580;2024-02-15T08:36:11;6.23;;;3.40;;
32786;SDS011;19139;49.372;8.580;2024-02-15T08:38:40;5.63;;;2.93;;
32786;SDS011;19139;49.372;8.580;2024-02-15T08:41:07;5.63;;;3.00;;
32786;SDS011;19139;49.372;8.580;2024-02-15T08:43:34;4.53;;;2.73;;
32786;SDS011;19139;49.372;8.580;2024-02-15T08:46:01;7.83;;;4.63;;
32786;SDS011;19139;49.372;8.580;2024-02-15T08:48:27;6.97;;;5.10;;
32786;SDS011;19139;49.372;8.580;2024-02-15T08:50:54;4.37;;;3.10;;
32786;SDS011;19139;49.372;8.580;2024-02-15T08:53:21;3.83;;;3.10;;
32786;SDS011;19139;49.372;8.580;2024-02-15T08:55:48;5.57;;;2.70;;
32786;SDS011;19139;49.372;8.580;2024-02-15T08:58:14;6.83;;;3.47;;
32786;SDS011;19139;49.372;8.580;2024-02-15T09:00:41;6.33;;;2.60;;
32786;SDS011;19139;49.372;8.580;2024-02-15T09:03:11;6.80;;;2.83;;
32786;SDS011;19139;49.372;8.580;2024-02-15T09:05:40;7.50;;;2.87;;
32786;SDS011;19139;49.372;8.580;2024-02-15T09:08:07;5.73;;;2.80;;
32786;SDS011;19139;49.372;8.580;2024-02-15T09:10:34;5.97;;;2.90;;
32786;SDS011;19139;49.372;8.580;2024-02-15T09:13:02;6.80;;;2.00;;
32786;SDS011;19139;49.372;8.580;2024-02-15T09:15:29;7.77;;;2.80;;
32786;SDS011;19139;49.372;8.580;2024-02-15T09:17:57;5.87;;;2.00;;
32786;SDS011;19139;49.372;8.580;2024-02-15T09:20:24;2.43;;;1.50;;
32786;SDS011;19139;49.372;8.580;2024-02-15T09:22:54;3.43;;;1.83;;
32786;SDS011;19139;49.372;8.580;2024-02-15T09:25:23;4.00;;;1.50;;
32786;SDS011;19139;49.372;8.580;2024-02-15T09:27:50;4.30;;;2.17;;
32786;SDS011;19139;49.372;8.580;2024-02-15T09:30:17;2.30;;;1.57;;
32786;SDS011;19139;49.372;8.580;2024-02-15T09:32:44;4.57;;;1.80;;
32786;SDS011;19139;49.372;8.580;2024-02-15T09:35:12;3.43;;;1.40;;
32786;SDS011;19139;49.372;8.580;2024-02-15T09:37:44;3.20;;;1.57;;
32786;SDS011;19139;49.372;8.580;2024-02-15T09:40:12;4.10;;;1.67;;
32786;SDS011;19139;49.372;8.580;2024-02-15T09:42:42;1.93;;;1.30;;
32786;SDS011;19139;49.372;8.580;2024-02-15T09:45:11;1.97;;;1.50;;
32786;SDS011;19139;49.372;8.580;2024-02-15T09:47:39;3.53;;;1.60;;
32786;SDS011;19139;49.372;8.580;2024-02-15T09:50:07;3.37;;;1.40;;
32786;SDS011;19139;49.372;8.580;2024-02-15T09:52:40;6.20;;;1.70;;
32786;SDS011;19139;49.372;8.580;2024-02-15T09:55:11;5.63;;;1.57;;
32786;SDS011;19139;49.372;8.580;2024-02-15T09:57:43;3.33;;;1.90;;
32786;SDS011;19139;49.372;8.580;2024-02-15T10:00:11;4.97;;;1.40;;
32786;SDS011;19139;49.372;8.580;2024-02-15T10:02:43;4.80;;;1.50;;
32786;SDS011;19139;49.372;8.580;2024-02-15T10:05:12;3.13;;;1.40;;
32786;SDS011;19139;49.372;8.580;2024-02-15T10:07:39;2.07;;;1.30;;
32786;SDS011;19139;49.372;8.580;2024-02-15T10:10:16;3.67;;;1.40;;
32786;SDS011;19139;49.372;8.580;2024-02-15T10:12:46;2.57;;;1.53;;
32786;SDS011;19139;49.372;8.580;2024-02-15T10:15:35;3.60;;;1.53;;
32786;SDS011;19139;49.372;8.580;2024-02-15T10:18:07;4.00;;;1.73;;
32786;SDS011;19139;49.372;8.580;2024-02-15T10:20:37;3.13;;;1.53;;
32786;SDS011;19139;49.372;8.580;2024-02-15T10:25:38;3.43;;;1.50;;
32786;SDS011;19139;49.372;8.580;2024-02-15T10:28:07;6.00;;;1.97;;
32786;SDS011;19139;49.372;8.580;2024-02-15T10:30:35;5.40;;;1.60;;
32786;SDS011;19139;49.372;8.580;2024-02-15T10:33:03;3.57;;;1.50;;
32786;SDS011;19139;49.372;8.580;2024-02-15T10:35:31;3.10;;;1.53;;
32786;SDS011;19139;49.372;8.580;2024-02-15T10:38:07;3.73;;;1.70;;
32786;SDS011;19139;49.372;8.580;2024-02-15T10:40:36;4.00;;;1.60;;
32786;SDS011;19139;49.372;8.580;2024-02-15T10:43:03;1.83;;;1.40;;
32786;SDS011;19139;49.372;8.580;2024-02-15T10:45:31;5.60;;;2.33;;
32786;SDS011;19139;49.372;8.580;2024-02-15T10:47:59;4.83;;;1.80;;
32786;SDS011;19139;49.372;8.580;2024-02-15T10:50:26;4.90;;;2.23;;
32786;SDS011;19139;49.372;8.580;2024-02-15T10:52:57;3.33;;;1.47;;
32786;SDS011;19139;49.372;8.580;2024-02-15T10:55:33;4.00;;;1.63;;
32786;SDS011;19139;49.372;8.580;2024-02-15T10:58:25;3.73;;;1.67;;
32786;SDS011;19139;49.372;8.580;2024-02-15T11:00:56;9.93;;;2.80;;
32786;SDS011;19139;49.372;8.580;2024-02-15T11:03:28;3.57;;;1.50;;
32786;SDS011;19139;49.372;8.580;2024-02-15T11:06:02;3.20;;;1.67;;
32786;SDS011;19139;49.372;8.580;2024-02-15T11:08:31;5.27;;;1.83;;
32786;SDS011;19139;49.372;8.580;2024-02-15T11:10:58;9.83;;;2.03;;
32786;SDS011;19139;49.372;8.580;2024-02-15T11:13:28;3.47;;;2.07;;
32786;SDS011;19139;49.372;8.580;2024-02-15T11:15:55;3.63;;;1.80;;
32786;SDS011;19139;49.372;8.580;2024-02-15T11:21:15;4.23;;;2.13;;
32786;SDS011;19139;49.372;8.580;2024-02-15T11:23:44;3.77;;;1.87;;
32786;SDS011;19139;49.372;8.580;2024-02-15T11:35:16;3.10;;;1.90;;
32786;SDS011;19139;49.372;8.580;2024-02-15T11:40:20;3.37;;;1.73;;
32786;SDS011;19139;49.372;8.580;2024-02-15T11:43:07;5.73;;;2.17;;
32786;SDS011;19139;49.372;8.580;2024-02-15T11:45:37;4.63;;;1.90;;
32786;SDS011;19139;49.372;8.580;2024-02-15T11:48:07;3.93;;;2.00;;
32786;SDS011;19139;49.372;8.580;2024-02-15T11:50:39;2.90;;;1.83;;
32786;SDS011;19139;49.372;8.580;2024-02-15T11:53:07;2.07;;;1.47;;
32786;SDS011;19139;49.372;8.580;2024-02-15T11:55:39;2.63;;;1.70;;
32786;SDS011;19139;49.372;8.580;2024-02-15T11:58:09;5.27;;;2.63;;
32786;SDS011;19139;49.372;8.580;2024-02-15T12:00:37;4.83;;;1.90;;
32786;SDS011;19139;49.372;8.580;2024-02-15T12:03:23;5.80;;;1.90;;
32786;SDS011;19139;49.372;8.580;2024-02-15T12:06:25;4.17;;;1.73;;
32786;SDS011;19139;49.372;8.580;2024-02-15T12:09:17;3.13;;;1.70;;
32786;SDS011;19139;49.372;8.580;2024-02-15T12:12:03;5.83;;;1.83;;
32786;SDS011;19139;49.372;8.580;2024-02-15T12:14:49;5.17;;;1.50;;
32786;SDS011;19139;49.372;8.580;2024-02-15T12:17:34;3.30;;;1.87;;
32786;SDS011;19139;49.372;8.580;2024-02-15T12:20:20;3.20;;;1.80;;
32786;SDS011;19139;49.372;8.580;2024-02-15T12:22:51;8.47;;;2.13;;
32786;SDS011;19139;49.372;8.580;2024-02-15T12:25:19;8.67;;;2.20;;
32786;SDS011;19139;49.372;8.580;2024-02-15T12:27:54;7.43;;;2.50;;
32786;SDS011;19139;49.372;8.580;2024-02-15T12:30:22;2.93;;;1.50;;
32786;SDS011;19139;49.372;8.580;2024-02-15T12:32:51;2.93;;;1.60;;
32786;SDS011;19139;49.372;8.580;2024-02-15T12:35:19;2.70;;;1.77;;
32786;SDS011;19139;49.372;8.580;2024-02-15T12:37:47;4.10;;;1.33;;
32786;SDS011;19139;49.372;8.580;2024-02-15T12:40:16;4.70;;;1.63;;
32786;SDS011;19139;49.372;8.580;2024-02-15T12:42:44;2.33;;;1.00;;
32786;SDS011;19139;49.372;8.580;2024-02-15T12:45:15;2.30;;;1.43;;
32786;SDS011;19139;49.372;8.580;2024-02-15T12:47:44;2.20;;;0.80;;
32786;SDS011;19139;49.372;8.580;2024-02-15T12:50:15;3.43;;;1.17;;
32786;SDS011;19139;49.372;8.580;2024-02-15T12:52:46;5.60;;;1.00;;
32786;SDS011;19139;49.372;8.580;2024-02-15T12:55:16;4.40;;;0.87;;
32786;SDS011;19139;49.372;8.580;2024-02-15T12:57:49;9.50;;;1.00;;
32786;SDS011;19139;49.372;8.580;2024-02-15T13:00:25;5.53;;;1.20;;
32786;SDS011;19139;49.372;8.580;2024-02-15T13:02:58;2.80;;;0.90;;
32786;SDS011;19139;49.372;8.580;2024-02-15T13:05:26;4.63;;;1.23;;
32786;SDS011;19139;49.372;8.580;2024-02-15T13:07:53;2.60;;;0.90;;
32786;SDS011;19139;49.372;8.580;2024-02-15T13:10:29;3.23;;;1.00;;
32786;SDS011;19139;49.372;8.580;2024-02-15T13:12:57;4.37;;;1.33;;
32786;SDS011;19139;49.372;8.580;2024-02-15T13:15:24;2.67;;;1.30;;
32786;SDS011;19139;49.372;8.580;2024-02-15T13:17:59;3.33;;;1.90;;
32786;SDS011;19139;49.372;8.580;2024-02-15T13:20:26;3.53;;;2.20;;
32786;SDS011;19139;49.372;8.580;2024-02-15T13:22:59;2.10;;;0.80;;
32786;SDS011;19139;49.372;8.580;2024-02-15T13:25:29;1.97;;;0.80;;
32786;SDS011;19139;49.372;8.580;2024-02-15T13:27:56;2.73;;;1.07;;
32786;SDS011;19139;49.372;8.580;2024-02-15T13:30:25;1.93;;;0.80;;
32786;SDS011;19139;49.372;8.580;2024-02-15T13:32:55;2.70;;;0.83;;
32786;SDS011;19139;49.372;8.580;2024-02-15T13:35:23;3.87;;;1.33;;
32786;SDS011;19139;49.372;8.580;2024-02-15T13:37:50;2.70;;;1.10;;
32786;SDS011;19139;49.372;8.580;2024-02-15T13:40:21;5.17;;;1.20;;
32786;SDS011;19139;49.372;8.580;2024-02-15T13:42:50;2.77;;;1.03;;
32786;SDS011;19139;49.372;8.580;2024-02-15T13:45:20;2.40;;;0.90;;
32786;SDS011;19139;49.372;8.580;2024-02-15T13:47:50;5.17;;;1.30;;
32786;SDS011;19139;49.372;8.580;2024-02-15T13:50:21;2.30;;;1.03;;
32786;SDS011;19139;49.372;8.580;2024-02-15T13:52:49;4.27;;;1.60;;
32786;SDS011;19139;49.372;8.580;2024-02-15T13:55:17;8.03;;;1.07;;
32786;SDS011;19139;49.372;8.580;2024-02-15T13:57:45;2.70;;;1.00;;
32786;SDS011;19139;49.372;8.580;2024-02-15T14:00:14;2.60;;;1.00;;
32786;SDS011;19139;49.372;8.580;2024-02-15T14:02:48;3.47;;;1.20;;
32786;SDS011;19139;49.372;8.580;2024-02-15T14:05:16;1.50;;;0.97;;
32786;SDS011;19139;49.372;8.580;2024-02-15T14:07:47;5.37;;;1.70;;
32786;SDS011;19139;49.372;8.580;2024-02-15T14:10:16;2.87;;;1.10;;
32786;SDS011;19139;49.372;8.580;2024-02-15T14:12:47;4.53;;;1.30;;
32786;SDS011;19139;49.372;8.580;2024-02-15T14:15:15;2.30;;;0.90;;
32786;SDS011;19139;49.372;8.580;2024-02-15T14:17:43;2.10;;;1.50;;
32786;SDS011;19139;49.372;8.580;2024-02-15T14:20:11;3.37;;;1.47;;
32786;SDS011;19139;49.372;8.580;2024-02-15T14:22:47;5.43;;;1.50;;
32786;SDS011;19139;49.372;8.580;2024-02-15T14:25:16;2.83;;;1.40;;
32786;SDS011;19139;49.372;8.580;2024-02-15T14:27:42;5.00;;;1.30;;
32786;SDS011;19139;49.372;8.580;2024-02-15T14:30:09;3.47;;;1.70;;
32786;SDS011;19139;49.372;8.580;2024-02-15T14:32:55;3.27;;;1.33;;
32786;SDS011;19139;49.372;8.580;2024-02-15T14:35:32;3.47;;;1.37;;
32786;SDS011;19139;49.372;8.580;2024-02-15T14:43:08;2.60;;;1.20;;
32786;SDS011;19139;49.372;8.580;2024-02-15T14:45:44;3.57;;;1.60;;
32786;SDS011;19139;49.372;8.580;2024-02-15T14:48:11;4.20;;;1.67;;
32786;SDS011;19139;49.372;8.580;2024-02-15T14:50:39;3.33;;;1.97;;
32786;SDS011;19139;49.372;8.580;2024-02-15T14:53:07;5.40;;;1.80;;
32786;SDS011;19139;49.372;8.580;2024-02-15T14:55:34;3.33;;;1.60;;
32786;SDS011;19139;49.372;8.580;2024-02-15T14:58:01;3.80;;;1.37;;
32786;SDS011;19139;49.372;8.580;2024-02-15T15:00:30;1.73;;;1.10;;
32786;SDS011;19139;49.372;8.580;2024-02-15T15:03:03;4.57;;;1.67;;
32786;SDS011;19139;49.372;8.580;2024-02-15T15:05:30;4.17;;;1.80;;
32786;SDS011;19139;49.372;8.580;2024-02-15T15:08:16;5.43;;;1.40;;
32786;SDS011;19139;49.372;8.580;2024-02-15T15:11:01;3.53;;;1.70;;
32786;SDS011;19139;49.372;8.580;2024-02-15T15:13:47;4.40;;;1.57;;
32786;SDS011;19139;49.372;8.580;2024-02-15T15:16:14;2.73;;;1.20;;
32786;SDS011;19139;49.372;8.580;2024-02-15T15:18:44;5.27;;;2.10;;
32786;SDS011;19139;49.372;8.580;2024-02-15T15:21:12;4.97;;;2.10;;
32786;SDS011;19139;49.372;8.580;2024-02-15T15:23:39;2.00;;;1.30;;